sensor_id;sensor_type;location;lat;lon;timestamp;temperature;humidity
10419;DHT22;5256;48.728;9.140;2022-11-03T00:01:45;5.00;99.90
10419;DHT22;5256;48.728;9.140;2022-11-03T00:04:14;5.00;99.90
10419;DHT22;5256;48.728;9.140;2022-11-03T00:06:42;5.00;99.90
10419;DHT22;5256;48.728;9.140;2022-11-03T00:09:10;5.10;99.90
10419;DHT22;5256;48.728;9.140;2022-11-03T00:11:37;5.20;99.90
10419;DHT22;5256;48.728;9.140;2022-11-03T00:14:03;5.20;99.90
10419;DHT22;5256;48.728;9.140;2022-11-03T00:16:29;5.20;99.90
10419;DHT22;5256;48.728;9.140;2022-11-03T00:18:55;5.10;99.90
10419;DHT22;5256;48.728;9.140;2022-11-03T00:21:21;5.00;99.90
10419;DHT22;5256;48.728;9.140;2022-11-03T00:23:47;4.90;99.90
10419;DHT22;5256;48.728;9.140;2022-11-03T00:26:17;4.90;99.90
10419;DHT22;5256;48.728;9.140;2022-11-03T00:28:44;4.90;99.90
10419;DHT22;5256;48.728;9.140;2022-11-03T00:31:14;4.80;99.90
10419;DHT22;5256;48.728;9.140;2022-11-03T00:33:40;4.80;99.90
10419;DHT22;5256;48.728;9.140;2022-11-03T00:36:08;4.80;99.90
10419;DHT22;5256;48.728;9.140;2022-11-03T00:38:34;4.80;99.90
10419;DHT22;5256;48.728;9.140;2022-11-03T00:41:02;4.80;99.90
10419;DHT22;5256;48.728;9.140;2022-11-03T00:43:29;4.70;99.90
10419;DHT22;5256;48.728;9.140;2022-11-03T00:45:56;4.70;99.90
10419;DHT22;5256;48.728;9.140;2022-11-03T00:48:22;4.60;99.90
10419;DHT22;5256;48.728;9.140;2022-11-03T00:51:14;4.60;99.90
10419;DHT22;5256;48.728;9.140;2022-11-03T00:53:49;4.60;99.90
10419;DHT22;5256;48.728;9.140;2022-11-03T00:56:17;4.60;99.90
10419;DHT22;5256;48.728;9.140;2022-11-03T00:58:43;4.50;99.90
10419;DHT22;5256;48.728;9.140;2022-11-03T01:01:14;4.50;99.90
10419;DHT22;5256;48.728;9.140;2022-11-03T01:03:42;4.50;99.90
10419;DHT22;5256;48.728;9.140;2022-11-03T01:06:36;4.50;99.90
10419;DHT22;5256;48.728;9.140;2022-11-03T01:09:38;4.50;99.90
10419;DHT22;5256;48.728;9.140;2022-11-03T01:14:42;4.40;99.90
10419;DHT22;5256;48.728;9.140;2022-11-03T01:17:16;4.40;99.90
10419;DHT22;5256;48.728;9.140;2022-11-03T01:19:42;4.40;99.90
10419;DHT22;5256;48.728;9.140;2022-11-03T01:22:08;4.50;99.90
10419;DHT22;5256;48.728;9.140;2022-11-03T01:24:34;4.50;99.90
10419;DHT22;5256;48.728;9.140;2022-11-03T01:27:00;4.40;99.90
10419;DHT22;5256;48.728;9.140;2022-11-03T01:29:26;4.40;99.90
10419;DHT22;5256;48.728;9.140;2022-11-03T01:31:51;4.40;99.90
10419;DHT22;5256;48.728;9.140;2022-11-03T01:34:19;4.30;99.90
10419;DHT22;5256;48.728;9.140;2022-11-03T01:36:45;4.30;99.90
10419;DHT22;5256;48.728;9.140;2022-11-03T01:39:13;4.30;99.90
10419;DHT22;5256;48.728;9.140;2022-11-03T01:41:40;4.30;99.90
10419;DHT22;5256;48.728;9.140;2022-11-03T01:46:35;4.30;99.90
10419;DHT22;5256;48.728;9.140;2022-11-03T01:49:07;4.30;99.90
10419;DHT22;5256;48.728;9.140;2022-11-03T01:51:35;4.30;99.90
10419;DHT22;5256;48.728;9.140;2022-11-03T01:54:05;4.40;99.90
10419;DHT22;5256;48.728;9.140;2022-11-03T01:56:34;4.40;99.90
10419;DHT22;5256;48.728;9.140;2022-11-03T01:59:00;4.40;99.90
10419;DHT22;5256;48.728;9.140;2022-11-03T02:01:27;4.40;99.90
10419;DHT22;5256;48.728;9.140;2022-11-03T02:03:58;4.40;99.90
10419;DHT22;5256;48.728;9.140;2022-11-03T02:06:26;4.40;99.90
10419;DHT22;5256;48.728;9.140;2022-11-03T02:09:02;4.30;99.90
10419;DHT22;5256;48.728;9.140;2022-11-03T02:11:30;4.30;99.90
10419;DHT22;5256;48.728;9.140;2022-11-03T02:14:14;4.40;99.90
10419;DHT22;5256;48.728;9.140;2022-11-03T02:16:43;4.30;99.90
10419;DHT22;5256;48.728;9.140;2022-11-03T02:19:52;4.40;99.90
10419;DHT22;5256;48.728;9.140;2022-11-03T02:22:29;4.40;99.90
10419;DHT22;5256;48.728;9.140;2022-11-03T02:27:27;4.30;99.90
10419;DHT22;5256;48.728;9.140;2022-11-03T02:29:53;4.20;99.90
10419;DHT22;5256;48.728;9.140;2022-11-03T02:32:28;4.10;99.90
10419;DHT22;5256;48.728;9.140;2022-11-03T02:35:19;4.10;99.90
10419;DHT22;5256;48.728;9.140;2022-11-03T02:37:49;4.10;99.90
10419;DHT22;5256;48.728;9.140;2022-11-03T02:40:19;4.00;99.90
10419;DHT22;5256;48.728;9.140;2022-11-03T02:42:49;4.00;99.90
10419;DHT22;5256;48.728;9.140;2022-11-03T02:45:19;4.00;99.90
10419;DHT22;5256;48.728;9.140;2022-11-03T02:47:46;4.00;99.90
10419;DHT22;5256;48.728;9.140;2022-11-03T02:50:13;4.00;99.90
10419;DHT22;5256;48.728;9.140;2022-11-03T02:58:17;4.00;99.90
10419;DHT22;5256;48.728;9.140;2022-11-03T03:03:17;3.90;99.90
10419;DHT22;5256;48.728;9.140;2022-11-03T03:05:46;3.90;99.90
10419;DHT22;5256;48.728;9.140;2022-11-03T03:08:13;3.90;99.90
10419;DHT22;5256;48.728;9.140;2022-11-03T03:10:42;3.90;99.90
10419;DHT22;5256;48.728;9.140;2022-11-03T03:13:11;4.00;99.90
10419;DHT22;5256;48.728;9.140;2022-11-03T03:18:23;4.10;99.90
10419;DHT22;5256;48.728;9.140;2022-11-03T03:21:00;4.10;99.90
10419;DHT22;5256;48.728;9.140;2022-11-03T03:23:34;4.10;99.90
10419;DHT22;5256;48.728;9.140;2022-11-03T03:26:07;4.10;99.90
10419;DHT22;5256;48.728;9.140;2022-11-03T03:28:47;4.10;99.90
10419;DHT22;5256;48.728;9.140;2022-11-03T03:31:16;4.10;99.90
10419;DHT22;5256;48.728;9.140;2022-11-03T03:33:44;4.00;99.90
10419;DHT22;5256;48.728;9.140;2022-11-03T03:36:14;4.10;99.90
10419;DHT22;5256;48.728;9.140;2022-11-03T03:38:45;4.20;99.90
10419;DHT22;5256;48.728;9.140;2022-11-03T03:41:14;4.20;99.90
10419;DHT22;5256;48.728;9.140;2022-11-03T03:43:56;4.10;99.90
10419;DHT22;5256;48.728;9.140;2022-11-03T03:46:25;4.10;99.90
10419;DHT22;5256;48.728;9.140;2022-11-03T03:48:52;4.00;99.90
10419;DHT22;5256;48.728;9.140;2022-11-03T03:51:20;4.00;99.90
10419;DHT22;5256;48.728;9.140;2022-11-03T03:53:50;4.00;99.90
10419;DHT22;5256;48.728;9.140;2022-11-03T03:56:29;4.00;99.90
10419;DHT22;5256;48.728;9.140;2022-11-03T03:58:55;4.20;99.90
10419;DHT22;5256;48.728;9.140;2022-11-03T04:01:21;4.10;99.90
10419;DHT22;5256;48.728;9.140;2022-11-03T04:03:47;3.90;99.90
10419;DHT22;5256;48.728;9.140;2022-11-03T04:06:12;3.90;99.90
10419;DHT22;5256;48.728;9.140;2022-11-03T04:08:38;3.80;99.90
10419;DHT22;5256;48.728;9.140;2022-11-03T04:11:03;3.70;99.90
10419;DHT22;5256;48.728;9.140;2022-11-03T04:13:47;3.80;99.90
10419;DHT22;5256;48.728;9.140;2022-11-03T04:16:31;3.80;99.90
10419;DHT22;5256;48.728;9.140;2022-11-03T04:19:15;3.70;99.90
10419;DHT22;5256;48.728;9.140;2022-11-03T04:22:00;3.70;99.90
10419;DHT22;5256;48.728;9.140;2022-11-03T04:24:41;3.80;99.90
10419;DHT22;5256;48.728;9.140;2022-11-03T04:27:28;3.70;99.90
10419;DHT22;5256;48.728;9.140;2022-11-03T04:30:17;3.70;99.90
10419;DHT22;5256;48.728;9.140;2022-11-03T04:32:45;3.60;99.90
10419;DHT22;5256;48.728;9.140;2022-11-03T04:35:21;3.60;99.90
10419;DHT22;5256;48.728;9.140;2022-11-03T04:37:50;3.60;99.90
10419;DHT22;5256;48.728;9.140;2022-11-03T04:40:18;3.50;99.90
10419;DHT22;5256;48.728;9.140;2022-11-03T04:42:44;3.60;99.90
10419;DHT22;5256;48.728;9.140;2022-11-03T04:47:49;3.50;99.90
10419;DHT22;5256;48.728;9.140;2022-11-03T04:50:17;3.50;99.90
10419;DHT22;5256;48.728;9.140;2022-11-03T04:52:45;3.60;99.90
10419;DHT22;5256;48.728;9.140;2022-11-03T04:55:13;3.50;99.90
10419;DHT22;5256;48.728;9.140;2022-11-03T04:57:39;3.50;99.90
10419;DHT22;5256;48.728;9.140;2022-11-03T05:00:06;3.50;99.90
10419;DHT22;5256;48.728;9.140;2022-11-03T05:02:32;3.40;99.90
10419;DHT22;5256;48.728;9.140;2022-11-03T05:04:58;3.50;99.90
10419;DHT22;5256;48.728;9.140;2022-11-03T05:07:34;3.50;99.90
10419;DHT22;5256;48.728;9.140;2022-11-03T05:10:01;3.60;99.90
10419;DHT22;5256;48.728;9.140;2022-11-03T05:12:28;3.50;99.90
10419;DHT22;5256;48.728;9.140;2022-11-03T05:14:54;3.40;99.90
10419;DHT22;5256;48.728;9.140;2022-11-03T05:17:22;3.30;99.90
10419;DHT22;5256;48.728;9.140;2022-11-03T05:19:50;3.30;99.90
10419;DHT22;5256;48.728;9.140;2022-11-03T05:22:19;3.30;99.90
10419;DHT22;5256;48.728;9.140;2022-11-03T05:24:45;3.30;99.90
10419;DHT22;5256;48.728;9.140;2022-11-03T05:27:20;3.30;99.90
10419;DHT22;5256;48.728;9.140;2022-11-03T05:29:47;3.30;99.90
10419;DHT22;5256;48.728;9.140;2022-11-03T05:32:18;3.30;99.90
10419;DHT22;5256;48.728;9.140;2022-11-03T05:34:46;3.30;99.90
10419;DHT22;5256;48.728;9.140;2022-11-03T05:37:33;3.30;99.90
10419;DHT22;5256;48.728;9.140;2022-11-03T05:40:14;3.50;99.90
10419;DHT22;5256;48.728;9.140;2022-11-03T05:42:43;3.40;99.90
10419;DHT22;5256;48.728;9.140;2022-11-03T05:45:23;3.40;99.90
10419;DHT22;5256;48.728;9.140;2022-11-03T05:47:53;3.30;99.90
10419;DHT22;5256;48.728;9.140;2022-11-03T05:50:29;3.20;99.90
10419;DHT22;5256;48.728;9.140;2022-11-03T05:55:51;3.30;99.90
10419;DHT22;5256;48.728;9.140;2022-11-03T05:58:38;3.20;99.90
10419;DHT22;5256;48.728;9.140;2022-11-03T06:01:35;3.20;99.90
10419;DHT22;5256;48.728;9.140;2022-11-03T06:04:27;3.10;99.90
10419;DHT22;5256;48.728;9.140;2022-11-03T06:07:05;3.10;99.90
10419;DHT22;5256;48.728;9.140;2022-11-03T06:09:34;3.10;99.90
10419;DHT22;5256;48.728;9.140;2022-11-03T06:12:01;3.10;99.90
10419;DHT22;5256;48.728;9.140;2022-11-03T06:14:30;3.10;99.90
10419;DHT22;5256;48.728;9.140;2022-11-03T06:17:02;3.10;99.90
10419;DHT22;5256;48.728;9.140;2022-11-03T06:19:45;3.20;99.90
10419;DHT22;5256;48.728;9.140;2022-11-03T06:22:30;3.20;99.90
10419;DHT22;5256;48.728;9.140;2022-11-03T06:25:29;3.40;99.90
10419;DHT22;5256;48.728;9.140;2022-11-03T06:28:00;3.40;99.90
10419;DHT22;5256;48.728;9.140;2022-11-03T06:30:28;3.40;99.90
10419;DHT22;5256;48.728;9.140;2022-11-03T06:32:58;3.50;99.90
10419;DHT22;5256;48.728;9.140;2022-11-03T06:35:24;3.50;99.90
10419;DHT22;5256;48.728;9.140;2022-11-03T06:37:50;3.60;99.90
10419;DHT22;5256;48.728;9.140;2022-11-03T06:40:31;3.70;99.90
10419;DHT22;5256;48.728;9.140;2022-11-03T06:42:58;3.70;99.90
10419;DHT22;5256;48.728;9.140;2022-11-03T06:45:24;3.80;99.90
10419;DHT22;5256;48.728;9.140;2022-11-03T06:47:53;3.90;99.90
10419;DHT22;5256;48.728;9.140;2022-11-03T06:50:32;3.90;99.90
10419;DHT22;5256;48.728;9.140;2022-11-03T06:52:59;4.00;99.90
10419;DHT22;5256;48.728;9.140;2022-11-03T06:55:35;4.10;99.90
10419;DHT22;5256;48.728;9.140;2022-11-03T06:58:25;4.20;99.90
10419;DHT22;5256;48.728;9.140;2022-11-03T07:00:52;4.30;99.90
10419;DHT22;5256;48.728;9.140;2022-11-03T07:06:19;4.40;99.90
10419;DHT22;5256;48.728;9.140;2022-11-03T07:08:54;4.60;99.90
10419;DHT22;5256;48.728;9.140;2022-11-03T07:11:22;4.70;99.90
10419;DHT22;5256;48.728;9.140;2022-11-03T07:13:51;4.90;99.90
10419;DHT22;5256;48.728;9.140;2022-11-03T07:18:48;5.20;99.90
10419;DHT22;5256;48.728;9.140;2022-11-03T07:24:12;5.50;99.90
10419;DHT22;5256;48.728;9.140;2022-11-03T07:26:40;5.60;99.90
10419;DHT22;5256;48.728;9.140;2022-11-03T07:29:28;5.60;99.90
10419;DHT22;5256;48.728;9.140;2022-11-03T07:31:54;5.80;99.90
10419;DHT22;5256;48.728;9.140;2022-11-03T07:34:23;5.90;99.90
10419;DHT22;5256;48.728;9.140;2022-11-03T07:36:50;6.10;99.90
10419;DHT22;5256;48.728;9.140;2022-11-03T07:39:18;6.20;99.90
10419;DHT22;5256;48.728;9.140;2022-11-03T07:41:44;6.40;99.90
10419;DHT22;5256;48.728;9.140;2022-11-03T07:44:17;6.50;99.90
10419;DHT22;5256;48.728;9.140;2022-11-03T07:46:45;6.60;99.90
10419;DHT22;5256;48.728;9.140;2022-11-03T07:49:31;6.70;99.90
10419;DHT22;5256;48.728;9.140;2022-11-03T07:51:58;6.80;99.90
10419;DHT22;5256;48.728;9.140;2022-11-03T07:54:28;6.80;99.90
10419;DHT22;5256;48.728;9.140;2022-11-03T07:56:58;7.00;99.90
10419;DHT22;5256;48.728;9.140;2022-11-03T07:59:29;7.10;99.90
10419;DHT22;5256;48.728;9.140;2022-11-03T08:01:56;7.20;99.90
10419;DHT22;5256;48.728;9.140;2022-11-03T08:04:33;7.30;99.90
10419;DHT22;5256;48.728;9.140;2022-11-03T08:06:59;7.40;99.90
10419;DHT22;5256;48.728;9.140;2022-11-03T08:09:25;7.40;99.90
10419;DHT22;5256;48.728;9.140;2022-11-03T08:11:51;7.50;99.90
10419;DHT22;5256;48.728;9.140;2022-11-03T08:14:17;7.60;99.90
10419;DHT22;5256;48.728;9.140;2022-11-03T08:16:43;7.70;99.90
10419;DHT22;5256;48.728;9.140;2022-11-03T08:19:09;7.80;99.90
10419;DHT22;5256;48.728;9.140;2022-11-03T08:21:34;8.00;99.90
10419;DHT22;5256;48.728;9.140;2022-11-03T08:24:00;8.00;99.90
10419;DHT22;5256;48.728;9.140;2022-11-03T08:26:26;8.00;99.90
10419;DHT22;5256;48.728;9.140;2022-11-03T08:28:51;8.10;99.90
10419;DHT22;5256;48.728;9.140;2022-11-03T08:31:17;8.20;99.90
10419;DHT22;5256;48.728;9.140;2022-11-03T08:33:43;8.30;99.90
10419;DHT22;5256;48.728;9.140;2022-11-03T08:36:09;8.50;99.90
10419;DHT22;5256;48.728;9.140;2022-11-03T08:38:35;8.60;99.90
10419;DHT22;5256;48.728;9.140;2022-11-03T08:41:01;8.70;99.90
10419;DHT22;5256;48.728;9.140;2022-11-03T08:43:27;8.80;99.90
10419;DHT22;5256;48.728;9.140;2022-11-03T08:45:53;8.90;99.90
10419;DHT22;5256;48.728;9.140;2022-11-03T08:48:25;9.10;99.90
10419;DHT22;5256;48.728;9.140;2022-11-03T08:50:52;9.20;99.90
10419;DHT22;5256;48.728;9.140;2022-11-03T08:53:25;9.40;99.90
10419;DHT22;5256;48.728;9.140;2022-11-03T08:55:54;9.40;99.90
10419;DHT22;5256;48.728;9.140;2022-11-03T08:58:20;9.50;99.90
10419;DHT22;5256;48.728;9.140;2022-11-03T09:00:47;9.70;99.90
10419;DHT22;5256;48.728;9.140;2022-11-03T09:03:13;9.70;99.90
10419;DHT22;5256;48.728;9.140;2022-11-03T09:05:39;9.80;99.90
10419;DHT22;5256;48.728;9.140;2022-11-03T09:08:04;9.80;99.90
10419;DHT22;5256;48.728;9.140;2022-11-03T09:10:30;9.90;99.90
10419;DHT22;5256;48.728;9.140;2022-11-03T09:12:56;9.90;99.90
10419;DHT22;5256;48.728;9.140;2022-11-03T09:15:21;10.00;99.90
10419;DHT22;5256;48.728;9.140;2022-11-03T09:17:47;10.10;99.90
10419;DHT22;5256;48.728;9.140;2022-11-03T09:20:13;10.20;99.90
10419;DHT22;5256;48.728;9.140;2022-11-03T09:22:38;10.30;99.90
10419;DHT22;5256;48.728;9.140;2022-11-03T09:25:04;10.50;99.90
10419;DHT22;5256;48.728;9.140;2022-11-03T09:27:30;10.60;99.90
10419;DHT22;5256;48.728;9.140;2022-11-03T09:29:56;10.60;99.90
10419;DHT22;5256;48.728;9.140;2022-11-03T09:32:21;10.70;99.90
10419;DHT22;5256;48.728;9.140;2022-11-03T09:34:47;10.80;99.90
10419;DHT22;5256;48.728;9.140;2022-11-03T09:37:12;10.80;99.90
10419;DHT22;5256;48.728;9.140;2022-11-03T09:39:38;10.90;99.90
10419;DHT22;5256;48.728;9.140;2022-11-03T09:42:04;11.10;99.90
10419;DHT22;5256;48.728;9.140;2022-11-03T09:44:34;11.10;99.90
10419;DHT22;5256;48.728;9.140;2022-11-03T09:47:02;11.20;99.90
10419;DHT22;5256;48.728;9.140;2022-11-03T09:49:30;11.30;99.90
10419;DHT22;5256;48.728;9.140;2022-11-03T09:51:57;11.40;99.90
10419;DHT22;5256;48.728;9.140;2022-11-03T09:54:23;11.40;99.90
10419;DHT22;5256;48.728;9.140;2022-11-03T09:56:48;11.50;99.90
10419;DHT22;5256;48.728;9.140;2022-11-03T09:59:15;11.60;99.90
10419;DHT22;5256;48.728;9.140;2022-11-03T10:01:42;11.60;99.90
10419;DHT22;5256;48.728;9.140;2022-11-03T10:04:10;11.60;99.90
10419;DHT22;5256;48.728;9.140;2022-11-03T10:06:37;11.60;99.90
10419;DHT22;5256;48.728;9.140;2022-11-03T10:09:03;11.60;99.90
10419;DHT22;5256;48.728;9.140;2022-11-03T10:11:29;11.60;99.90
10419;DHT22;5256;48.728;9.140;2022-11-03T10:13:56;11.80;99.90
10419;DHT22;5256;48.728;9.140;2022-11-03T10:16:23;11.90;99.90
10419;DHT22;5256;48.728;9.140;2022-11-03T10:18:50;11.80;99.90
10419;DHT22;5256;48.728;9.140;2022-11-03T10:23:41;11.90;99.90
10419;DHT22;5256;48.728;9.140;2022-11-03T10:26:18;11.90;99.90
10419;DHT22;5256;48.728;9.140;2022-11-03T10:29:02;11.90;99.90
10419;DHT22;5256;48.728;9.140;2022-11-03T10:31:34;12.00;99.90
10419;DHT22;5256;48.728;9.140;2022-11-03T10:34:00;12.00;99.90
10419;DHT22;5256;48.728;9.140;2022-11-03T10:36:30;12.00;99.90
10419;DHT22;5256;48.728;9.140;2022-11-03T10:38:56;11.90;99.90
10419;DHT22;5256;48.728;9.140;2022-11-03T10:41:27;11.80;99.90
10419;DHT22;5256;48.728;9.140;2022-11-03T10:44:18;11.70;99.90
10419;DHT22;5256;48.728;9.140;2022-11-03T10:47:04;11.60;99.90
10419;DHT22;5256;48.728;9.140;2022-11-03T10:49:32;11.60;99.90
10419;DHT22;5256;48.728;9.140;2022-11-03T10:52:19;11.60;99.90
10419;DHT22;5256;48.728;9.140;2022-11-03T10:54:46;11.60;99.90
10419;DHT22;5256;48.728;9.140;2022-11-03T10:57:12;11.80;99.90
10419;DHT22;5256;48.728;9.140;2022-11-03T10:59:38;11.80;99.90
10419;DHT22;5256;48.728;9.140;2022-11-03T11:02:18;12.00;99.90
10419;DHT22;5256;48.728;9.140;2022-11-03T11:04:46;12.10;99.90
10419;DHT22;5256;48.728;9.140;2022-11-03T11:07:22;12.30;99.90
10419;DHT22;5256;48.728;9.140;2022-11-03T11:09:50;12.40;99.90
10419;DHT22;5256;48.728;9.140;2022-11-03T11:12:23;12.40;99.90
10419;DHT22;5256;48.728;9.140;2022-11-03T11:14:55;12.50;99.90
10419;DHT22;5256;48.728;9.140;2022-11-03T11:22:49;12.50;99.90
10419;DHT22;5256;48.728;9.140;2022-11-03T11:25:17;12.60;99.90
10419;DHT22;5256;48.728;9.140;2022-11-03T11:27:52;12.50;99.90
10419;DHT22;5256;48.728;9.140;2022-11-03T11:37:47;12.90;99.90
10419;DHT22;5256;48.728;9.140;2022-11-03T11:40:59;12.80;99.90
10419;DHT22;5256;48.728;9.140;2022-11-03T11:48:34;12.90;99.90
10419;DHT22;5256;48.728;9.140;2022-11-03T11:51:01;12.90;99.90
10419;DHT22;5256;48.728;9.140;2022-11-03T11:53:31;13.00;99.90
10419;DHT22;5256;48.728;9.140;2022-11-03T11:56:00;13.10;99.90
10419;DHT22;5256;48.728;9.140;2022-11-03T11:58:48;13.00;99.90
10419;DHT22;5256;48.728;9.140;2022-11-03T12:01:32;13.10;99.90
10419;DHT22;5256;48.728;9.140;2022-11-03T12:04:16;13.30;99.90
10419;DHT22;5256;48.728;9.140;2022-11-03T12:06:42;13.20;99.90
10419;DHT22;5256;48.728;9.140;2022-11-03T12:09:22;13.20;99.90
10419;DHT22;5256;48.728;9.140;2022-11-03T12:11:53;13.20;99.90
10419;DHT22;5256;48.728;9.140;2022-11-03T12:14:33;13.20;99.90
10419;DHT22;5256;48.728;9.140;2022-11-03T12:25:02;13.20;99.90
10419;DHT22;5256;48.728;9.140;2022-11-03T12:30:00;13.10;99.90
10419;DHT22;5256;48.728;9.140;2022-11-03T12:32:27;13.10;99.90
10419;DHT22;5256;48.728;9.140;2022-11-03T12:34:52;13.00;99.90
10419;DHT22;5256;48.728;9.140;2022-11-03T12:37:19;13.00;99.90
10419;DHT22;5256;48.728;9.140;2022-11-03T12:39:45;13.00;99.90
10419;DHT22;5256;48.728;9.140;2022-11-03T12:42:11;13.10;99.90
10419;DHT22;5256;48.728;9.140;2022-11-03T12:44:36;13.00;99.90
10419;DHT22;5256;48.728;9.140;2022-11-03T12:47:02;12.90;99.90
10419;DHT22;5256;48.728;9.140;2022-11-03T12:49:27;12.90;99.90
10419;DHT22;5256;48.728;9.140;2022-11-03T12:51:53;12.90;99.90
10419;DHT22;5256;48.728;9.140;2022-11-03T12:54:19;12.90;99.90
10419;DHT22;5256;48.728;9.140;2022-11-03T12:56:46;12.80;99.90
10419;DHT22;5256;48.728;9.140;2022-11-03T12:59:11;12.70;99.90
10419;DHT22;5256;48.728;9.140;2022-11-03T13:01:37;12.70;99.90
10419;DHT22;5256;48.728;9.140;2022-11-03T13:04:03;12.70;99.90
10419;DHT22;5256;48.728;9.140;2022-11-03T13:06:32;12.70;99.90
10419;DHT22;5256;48.728;9.140;2022-11-03T13:08:58;12.70;99.90
10419;DHT22;5256;48.728;9.140;2022-11-03T13:11:24;12.70;99.90
10419;DHT22;5256;48.728;9.140;2022-11-03T13:14:08;12.60;99.90
10419;DHT22;5256;48.728;9.140;2022-11-03T13:16:33;12.60;99.90
10419;DHT22;5256;48.728;9.140;2022-11-03T13:19:00;12.60;99.90
10419;DHT22;5256;48.728;9.140;2022-11-03T13:21:25;12.60;99.90
10419;DHT22;5256;48.728;9.140;2022-11-03T13:23:51;12.60;99.90
10419;DHT22;5256;48.728;9.140;2022-11-03T13:26:17;12.60;99.90
10419;DHT22;5256;48.728;9.140;2022-11-03T13:28:43;12.60;99.90
10419;DHT22;5256;48.728;9.140;2022-11-03T13:31:09;12.60;99.90
10419;DHT22;5256;48.728;9.140;2022-11-03T13:33:35;12.60;99.90
10419;DHT22;5256;48.728;9.140;2022-11-03T13:36:00;12.60;99.90
10419;DHT22;5256;48.728;9.140;2022-11-03T13:38:26;12.60;99.90
10419;DHT22;5256;48.728;9.140;2022-11-03T13:40:51;12.60;99.90
10419;DHT22;5256;48.728;9.140;2022-11-03T13:43:17;12.70;99.90
10419;DHT22;5256;48.728;9.140;2022-11-03T13:45:42;12.70;99.90
10419;DHT22;5256;48.728;9.140;2022-11-03T13:48:08;12.60;99.90
10419;DHT22;5256;48.728;9.140;2022-11-03T13:50:33;12.60;99.90
10419;DHT22;5256;48.728;9.140;2022-11-03T13:52:59;12.60;99.90
10419;DHT22;5256;48.728;9.140;2022-11-03T13:55:24;12.60;99.90
10419;DHT22;5256;48.728;9.140;2022-11-03T13:57:50;12.60;99.90
10419;DHT22;5256;48.728;9.140;2022-11-03T14:00:16;12.50;99.90
10419;DHT22;5256;48.728;9.140;2022-11-03T14:02:42;12.50;99.90
10419;DHT22;5256;48.728;9.140;2022-11-03T14:05:08;12.60;99.90
10419;DHT22;5256;48.728;9.140;2022-11-03T14:07:35;12.50;99.90
10419;DHT22;5256;48.728;9.140;2022-11-03T14:10:01;12.40;99.90
10419;DHT22;5256;48.728;9.140;2022-11-03T14:12:27;12.40;99.90
10419;DHT22;5256;48.728;9.140;2022-11-03T14:15:00;12.30;99.90
10419;DHT22;5256;48.728;9.140;2022-11-03T14:17:26;12.20;99.90
10419;DHT22;5256;48.728;9.140;2022-11-03T14:19:52;12.10;99.90
10419;DHT22;5256;48.728;9.140;2022-11-03T14:22:19;12.10;99.90
10419;DHT22;5256;48.728;9.140;2022-11-03T14:24:45;12.00;99.90
10419;DHT22;5256;48.728;9.140;2022-11-03T14:27:11;11.90;99.90
10419;DHT22;5256;48.728;9.140;2022-11-03T14:29:37;11.80;99.90
10419;DHT22;5256;48.728;9.140;2022-11-03T14:32:03;11.70;99.90
10419;DHT22;5256;48.728;9.140;2022-11-03T14:34:29;11.70;99.90
10419;DHT22;5256;48.728;9.140;2022-11-03T14:36:55;11.60;99.90
10419;DHT22;5256;48.728;9.140;2022-11-03T14:39:20;11.50;99.90
10419;DHT22;5256;48.728;9.140;2022-11-03T14:41:46;11.50;99.90
10419;DHT22;5256;48.728;9.140;2022-11-03T14:44:37;11.60;99.90
10419;DHT22;5256;48.728;9.140;2022-11-03T14:47:05;11.50;99.90
10419;DHT22;5256;48.728;9.140;2022-11-03T14:49:31;11.50;99.90
10419;DHT22;5256;48.728;9.140;2022-11-03T14:51:58;11.50;99.90
10419;DHT22;5256;48.728;9.140;2022-11-03T14:54:24;11.50;99.90
10419;DHT22;5256;48.728;9.140;2022-11-03T14:56:51;11.50;99.90
10419;DHT22;5256;48.728;9.140;2022-11-03T14:59:17;11.40;99.90
10419;DHT22;5256;48.728;9.140;2022-11-03T15:01:42;11.40;99.90
10419;DHT22;5256;48.728;9.140;2022-11-03T15:04:08;11.30;99.90
10419;DHT22;5256;48.728;9.140;2022-11-03T15:06:34;11.30;99.90
10419;DHT22;5256;48.728;9.140;2022-11-03T15:09:00;11.20;99.90
10419;DHT22;5256;48.728;9.140;2022-11-03T15:11:26;11.10;99.90
10419;DHT22;5256;48.728;9.140;2022-11-03T15:13:51;11.00;99.90
10419;DHT22;5256;48.728;9.140;2022-11-03T15:16:19;11.00;99.90
10419;DHT22;5256;48.728;9.140;2022-11-03T15:18:45;10.90;99.90
10419;DHT22;5256;48.728;9.140;2022-11-03T15:21:11;10.90;99.90
10419;DHT22;5256;48.728;9.140;2022-11-03T15:23:36;10.90;99.90
10419;DHT22;5256;48.728;9.140;2022-11-03T15:26:02;10.90;99.90
10419;DHT22;5256;48.728;9.140;2022-11-03T15:28:27;10.90;99.90
10419;DHT22;5256;48.728;9.140;2022-11-03T15:30:53;10.80;99.90
10419;DHT22;5256;48.728;9.140;2022-11-03T15:33:18;10.80;99.90
10419;DHT22;5256;48.728;9.140;2022-11-03T15:35:44;10.80;99.90
10419;DHT22;5256;48.728;9.140;2022-11-03T15:38:10;10.70;99.90
10419;DHT22;5256;48.728;9.140;2022-11-03T15:40:36;10.70;99.90
10419;DHT22;5256;48.728;9.140;2022-11-03T15:43:02;10.70;99.90
10419;DHT22;5256;48.728;9.140;2022-11-03T15:45:27;10.60;99.90
10419;DHT22;5256;48.728;9.140;2022-11-03T15:47:53;10.60;99.90
10419;DHT22;5256;48.728;9.140;2022-11-03T15:50:18;10.60;99.90
10419;DHT22;5256;48.728;9.140;2022-11-03T15:52:44;10.50;99.90
10419;DHT22;5256;48.728;9.140;2022-11-03T15:55:10;10.60;99.90
10419;DHT22;5256;48.728;9.140;2022-11-03T15:57:35;10.60;99.90
10419;DHT22;5256;48.728;9.140;2022-11-03T16:00:03;10.60;99.90
10419;DHT22;5256;48.728;9.140;2022-11-03T16:02:31;10.60;99.90
10419;DHT22;5256;48.728;9.140;2022-11-03T16:04:57;10.50;99.90
10419;DHT22;5256;48.728;9.140;2022-11-03T16:07:22;10.40;99.90
10419;DHT22;5256;48.728;9.140;2022-11-03T16:09:48;10.40;99.90
10419;DHT22;5256;48.728;9.140;2022-11-03T16:12:14;10.50;99.90
10419;DHT22;5256;48.728;9.140;2022-11-03T16:14:40;10.50;99.90
10419;DHT22;5256;48.728;9.140;2022-11-03T16:17:05;10.40;99.90
10419;DHT22;5256;48.728;9.140;2022-11-03T16:19:31;10.40;99.90
10419;DHT22;5256;48.728;9.140;2022-11-03T16:21:57;10.30;99.90
10419;DHT22;5256;48.728;9.140;2022-11-03T16:24:22;10.30;99.90
10419;DHT22;5256;48.728;9.140;2022-11-03T16:26:48;10.30;99.90
10419;DHT22;5256;48.728;9.140;2022-11-03T16:29:15;10.30;99.90
10419;DHT22;5256;48.728;9.140;2022-11-03T16:31:40;10.20;99.90
10419;DHT22;5256;48.728;9.140;2022-11-03T16:34:06;10.20;99.90
10419;DHT22;5256;48.728;9.140;2022-11-03T16:36:32;10.20;99.90
10419;DHT22;5256;48.728;9.140;2022-11-03T16:38:57;10.10;99.90
10419;DHT22;5256;48.728;9.140;2022-11-03T16:41:23;10.10;99.90
10419;DHT22;5256;48.728;9.140;2022-11-03T16:43:48;10.10;99.90
10419;DHT22;5256;48.728;9.140;2022-11-03T16:46:14;10.10;99.90
10419;DHT22;5256;48.728;9.140;2022-11-03T16:48:40;10.10;99.90
10419;DHT22;5256;48.728;9.140;2022-11-03T16:51:06;10.00;99.90
10419;DHT22;5256;48.728;9.140;2022-11-03T16:53:32;10.00;99.90
10419;DHT22;5256;48.728;9.140;2022-11-03T16:55:57;10.00;99.90
10419;DHT22;5256;48.728;9.140;2022-11-03T16:58:23;10.00;99.90
10419;DHT22;5256;48.728;9.140;2022-11-03T17:00:48;10.00;99.90
10419;DHT22;5256;48.728;9.140;2022-11-03T17:03:14;10.00;99.90
10419;DHT22;5256;48.728;9.140;2022-11-03T17:05:40;10.00;99.90
10419;DHT22;5256;48.728;9.140;2022-11-03T17:08:06;10.00;99.90
10419;DHT22;5256;48.728;9.140;2022-11-03T17:10:32;10.00;99.90
10419;DHT22;5256;48.728;9.140;2022-11-03T17:12:57;10.00;99.90